Terminal Aerodrome Forecast
Issued by NWS Upton, NY

Home | Current Version | Previous Version | Text Only | Print | Product List | Glossary On
Versions: 1 2 3 4 5 6 7 8 9 10 11 12 13 14 15 16 17 18 19 20 21 22 23 24 25 26 27 28 29 30 31 32 33 34 35 36 37 38 39
721
FTUS41 KOKX 302340
TAFEWR
TAF
KEWR 302340Z 0100/0206 11011G16KT P6SM SCT015 OVC025
     FM010200 11008KT 6SM BR FEW008 OVC015
     FM010400 10005KT 4SM BR FEW003 OVC007
     FM010600 10005KT 1SM -DZ BR OVC004
     FM010800 VRB03KT 1/2SM -DZ FG OVC003
     FM011400 20008KT 6SM BR SCT007 BKN015
     FM011800 21016G24KT P6SM BKN035
     FM012000 20020G32KT P6SM SCT035 SCT250
     FM012300 17017KT P6SM SCT035 SCT250=

USA.gov is the U.S. government's official web portal to all federal, state and local government web resources and services.